sensor_id;sensor_type;location;lat;lon;timestamp;pressure;altitude;pressure_sealevel;temperature;humidity
9325;BME280;4701;51.566;6.776;2023-01-28T07:02:49;102662.19;;;0.18;80.30
9325;BME280;4701;51.566;6.776;2023-01-28T07:04:50;102664.34;;;0.32;79.85
9325;BME280;4701;51.566;6.776;2023-01-28T07:06:52;102663.81;;;0.28;79.92
9325;BME280;4701;51.566;6.776;2023-01-28T07:08:54;102664.94;;;0.26;79.43
9325;BME280;4701;51.566;6.776;2023-01-28T07:10:56;102661.13;;;0.28;79.00
9325;BME280;4701;51.566;6.776;2023-01-28T07:12:58;102663.81;;;0.46;78.52
9325;BME280;4701;51.566;6.776;2023-01-28T07:15:00;102662.25;;;0.44;77.99
9325;BME280;4701;51.566;6.776;2023-01-28T07:17:01;102654.53;;;0.41;77.04
9325;BME280;4701;51.566;6.776;2023-01-28T07:19:05;102657.22;;;0.41;76.69
9325;BME280;4701;51.566;6.776;2023-01-28T07:21:07;102658.72;;;0.43;76.92
9325;BME280;4701;51.566;6.776;2023-01-28T07:23:08;102662.97;;;0.46;77.24
9325;BME280;4701;51.566;6.776;2023-01-28T07:25:11;102664.34;;;0.50;77.29
9325;BME280;4701;51.566;6.776;2023-01-28T07:27:14;102662.34;;;0.52;77.71
9325;BME280;4701;51.566;6.776;2023-01-28T07:29:16;102670.09;;;0.55;77.99
9325;BME280;4701;51.566;6.776;2023-01-28T07:31:17;102664.28;;;0.59;77.63
9325;BME280;4701;51.566;6.776;2023-01-28T07:33:20;102662.88;;;0.55;77.57
9325;BME280;4701;51.566;6.776;2023-01-28T07:35:23;102658.81;;;0.51;77.32
9325;BME280;4701;51.566;6.776;2023-01-28T07:37:25;102654.97;;;0.54;77.19
9325;BME280;4701;51.566;6.776;2023-01-28T07:39:27;102662.34;;;0.52;76.95
9325;BME280;4701;51.566;6.776;2023-01-28T07:41:29;102662.50;;;0.50;77.31
9325;BME280;4701;51.566;6.776;2023-01-28T07:43:38;102679.69;;;0.57;77.12
9325;BME280;4701;51.566;6.776;2023-01-28T07:45:40;102666.63;;;0.62;77.18
9325;BME280;4701;51.566;6.776;2023-01-28T07:47:42;102664.94;;;0.61;77.10
9325;BME280;4701;51.566;6.776;2023-01-28T07:49:44;102677.22;;;0.64;77.07
9325;BME280;4701;51.566;6.776;2023-01-28T07:51:47;102693.88;;;0.67;77.22
9325;BME280;4701;51.566;6.776;2023-01-28T07:53:50;102711.47;;;0.70;76.31
9325;BME280;4701;51.566;6.776;2023-01-28T07:55:57;102711.25;;;0.63;76.32
9325;BME280;4701;51.566;6.776;2023-01-28T07:58:00;102707.72;;;0.63;76.35
9325;BME280;4701;51.566;6.776;2023-01-28T08:00:02;102709.13;;;0.67;75.62
9325;BME280;4701;51.566;6.776;2023-01-28T08:02:12;102706.09;;;0.70;75.78
9325;BME280;4701;51.566;6.776;2023-01-28T08:04:14;102705.97;;;0.71;75.91
9325;BME280;4701;51.566;6.776;2023-01-28T08:06:16;102709.19;;;0.75;75.30
9325;BME280;4701;51.566;6.776;2023-01-28T08:08:20;102698.06;;;0.70;75.37
9325;BME280;4701;51.566;6.776;2023-01-28T08:10:21;102696.13;;;0.80;75.17
9325;BME280;4701;51.566;6.776;2023-01-28T08:12:23;102700.06;;;0.68;74.65
9325;BME280;4701;51.566;6.776;2023-01-28T08:14:25;102698.69;;;0.82;74.56
9325;BME280;4701;51.566;6.776;2023-01-28T08:16:27;102704.19;;;0.80;74.06
9325;BME280;4701;51.566;6.776;2023-01-28T08:18:29;102697.81;;;0.81;75.08
9325;BME280;4701;51.566;6.776;2023-01-28T08:20:31;102696.78;;;0.74;73.53
9325;BME280;4701;51.566;6.776;2023-01-28T08:22:33;102702.28;;;0.72;73.78
9325;BME280;4701;51.566;6.776;2023-01-28T08:24:36;102718.53;;;0.71;74.57
9325;BME280;4701;51.566;6.776;2023-01-28T08:26:38;102716.47;;;0.65;74.42
9325;BME280;4701;51.566;6.776;2023-01-28T08:28:40;102724.13;;;0.60;75.23
9325;BME280;4701;51.566;6.776;2023-01-28T08:30:42;102740.34;;;0.68;74.82
9325;BME280;4701;51.566;6.776;2023-01-28T08:32:44;102735.97;;;0.67;74.35
9325;BME280;4701;51.566;6.776;2023-01-28T08:34:46;102741.69;;;0.72;74.92
9325;BME280;4701;51.566;6.776;2023-01-28T08:36:47;102744.00;;;0.85;74.28
9325;BME280;4701;51.566;6.776;2023-01-28T08:38:51;102751.44;;;0.91;74.13
9325;BME280;4701;51.566;6.776;2023-01-28T08:40:56;102755.66;;;0.93;74.20
9325;BME280;4701;51.566;6.776;2023-01-28T08:42:59;102762.56;;;0.96;73.49
9325;BME280;4701;51.566;6.776;2023-01-28T08:45:01;102753.78;;;0.94;73.98
9325;BME280;4701;51.566;6.776;2023-01-28T08:47:03;102764.25;;;0.97;73.69
9325;BME280;4701;51.566;6.776;2023-01-28T08:49:05;102767.69;;;1.07;73.69
9325;BME280;4701;51.566;6.776;2023-01-28T08:51:07;102775.13;;;0.95;73.47
9325;BME280;4701;51.566;6.776;2023-01-28T08:53:10;102764.78;;;1.00;73.56
9325;BME280;4701;51.566;6.776;2023-01-28T08:55:13;102769.53;;;1.06;73.91
9325;BME280;4701;51.566;6.776;2023-01-28T08:57:16;102771.59;;;1.12;74.12
9325;BME280;4701;51.566;6.776;2023-01-28T08:59:18;102783.72;;;1.17;74.05
9325;BME280;4701;51.566;6.776;2023-01-28T09:01:19;102788.09;;;1.18;73.59
9325;BME280;4701;51.566;6.776;2023-01-28T09:03:21;102794.38;;;1.26;73.46
9325;BME280;4701;51.566;6.776;2023-01-28T09:05:23;102793.00;;;1.22;73.09
9325;BME280;4701;51.566;6.776;2023-01-28T09:07:25;102782.41;;;1.21;73.12
9325;BME280;4701;51.566;6.776;2023-01-28T09:09:29;102779.03;;;1.19;73.27
9325;BME280;4701;51.566;6.776;2023-01-28T09:11:31;102783.25;;;1.21;73.08
9325;BME280;4701;51.566;6.776;2023-01-28T09:13:34;102786.78;;;1.22;72.75
9325;BME280;4701;51.566;6.776;2023-01-28T09:15:36;102786.47;;;1.25;72.80
9325;BME280;4701;51.566;6.776;2023-01-28T09:17:39;102782.91;;;1.42;72.20
9325;BME280;4701;51.566;6.776;2023-01-28T09:19:40;102776.78;;;1.32;71.85
9325;BME280;4701;51.566;6.776;2023-01-28T09:21:42;102785.47;;;1.26;72.38
9325;BME280;4701;51.566;6.776;2023-01-28T09:23:44;102789.47;;;1.22;73.28
9325;BME280;4701;51.566;6.776;2023-01-28T09:25:46;102796.16;;;1.18;73.86
9325;BME280;4701;51.566;6.776;2023-01-28T09:27:48;102798.44;;;1.12;73.94
9325;BME280;4701;51.566;6.776;2023-01-28T09:29:51;102799.38;;;1.21;73.76
9325;BME280;4701;51.566;6.776;2023-01-28T09:31:53;102795.38;;;1.25;73.83
9325;BME280;4701;51.566;6.776;2023-01-28T09:33:54;102799.38;;;1.21;73.07
9325;BME280;4701;51.566;6.776;2023-01-28T09:35:58;102805.06;;;1.00;73.20
9325;BME280;4701;51.566;6.776;2023-01-28T09:38:00;102807.28;;;1.05;73.67
9325;BME280;4701;51.566;6.776;2023-01-28T09:40:09;102812.34;;;0.90;74.27
9325;BME280;4701;51.566;6.776;2023-01-28T09:42:35;102799.91;;;0.89;74.72
9325;BME280;4701;51.566;6.776;2023-01-28T09:44:51;102798.78;;;0.92;75.28
9325;BME280;4701;51.566;6.776;2023-01-28T09:47:00;102798.00;;;1.17;74.50
9325;BME280;4701;51.566;6.776;2023-01-28T09:49:11;102808.81;;;1.25;73.88
9325;BME280;4701;51.566;6.776;2023-01-28T09:51:26;102814.47;;;1.22;72.96
9325;BME280;4701;51.566;6.776;2023-01-28T09:53:32;102806.63;;;1.29;73.43
9325;BME280;4701;51.566;6.776;2023-01-28T09:55:38;102802.03;;;1.21;74.39
9325;BME280;4701;51.566;6.776;2023-01-28T09:57:44;102805.66;;;1.12;73.95
9325;BME280;4701;51.566;6.776;2023-01-28T09:59:46;102815.41;;;1.13;74.23
9325;BME280;4701;51.566;6.776;2023-01-28T10:01:53;102813.84;;;1.28;74.28
9325;BME280;4701;51.566;6.776;2023-01-28T10:04:02;102803.66;;;1.32;73.94
9325;BME280;4701;51.566;6.776;2023-01-28T10:06:16;102810.41;;;1.36;74.18
9325;BME280;4701;51.566;6.776;2023-01-28T10:08:27;102804.41;;;1.42;73.91
9325;BME280;4701;51.566;6.776;2023-01-28T10:10:39;102804.47;;;1.50;73.41
9325;BME280;4701;51.566;6.776;2023-01-28T10:13:13;102798.25;;;1.49;73.85
9325;BME280;4701;51.566;6.776;2023-01-28T10:15:46;102785.41;;;1.61;73.92
9325;BME280;4701;51.566;6.776;2023-01-28T10:17:56;102798.75;;;1.79;72.76
9325;BME280;4701;51.566;6.776;2023-01-28T10:20:05;102798.31;;;1.83;72.19
9325;BME280;4701;51.566;6.776;2023-01-28T10:22:12;102789.38;;;1.83;72.67
9325;BME280;4701;51.566;6.776;2023-01-28T10:24:18;102790.19;;;1.75;72.70
9325;BME280;4701;51.566;6.776;2023-01-28T10:26:29;102798.44;;;1.82;71.36
9325;BME280;4701;51.566;6.776;2023-01-28T10:28:34;102800.91;;;1.67;72.28
9325;BME280;4701;51.566;6.776;2023-01-28T10:30:39;102802.03;;;1.65;71.96
9325;BME280;4701;51.566;6.776;2023-01-28T10:32:49;102804.53;;;1.58;70.87
9325;BME280;4701;51.566;6.776;2023-01-28T10:34:53;102808.13;;;1.67;70.76
9325;BME280;4701;51.566;6.776;2023-01-28T10:36:56;102800.19;;;1.65;70.22
9325;BME280;4701;51.566;6.776;2023-01-28T10:38:58;102804.53;;;1.58;70.88
9325;BME280;4701;51.566;6.776;2023-01-28T10:41:02;102805.88;;;1.62;71.28
9325;BME280;4701;51.566;6.776;2023-01-28T10:43:05;102805.56;;;1.39;71.53
9325;BME280;4701;51.566;6.776;2023-01-28T10:45:15;102809.50;;;1.27;72.59
9325;BME280;4701;51.566;6.776;2023-01-28T10:47:26;102823.16;;;1.34;72.63
9325;BME280;4701;51.566;6.776;2023-01-28T10:49:30;102817.09;;;1.32;73.25
9325;BME280;4701;51.566;6.776;2023-01-28T10:51:36;102805.22;;;1.17;73.00
9325;BME280;4701;51.566;6.776;2023-01-28T10:53:40;102803.88;;;1.21;72.97
9325;BME280;4701;51.566;6.776;2023-01-28T10:55:48;102811.72;;;1.14;73.12
9325;BME280;4701;51.566;6.776;2023-01-28T10:57:52;102815.88;;;1.08;73.10
9325;BME280;4701;51.566;6.776;2023-01-28T10:59:54;102823.47;;;0.95;73.32
9325;BME280;4701;51.566;6.776;2023-01-28T11:01:58;102823.09;;;0.90;73.14
9325;BME280;4701;51.566;6.776;2023-01-28T11:04:03;102828.81;;;0.77;73.54
9325;BME280;4701;51.566;6.776;2023-01-28T11:06:05;102836.50;;;0.72;73.61
9325;BME280;4701;51.566;6.776;2023-01-28T11:08:12;102833.94;;;0.71;73.22
9325;BME280;4701;51.566;6.776;2023-01-28T11:10:24;102823.34;;;0.69;73.47
9325;BME280;4701;51.566;6.776;2023-01-28T11:12:27;102820.38;;;0.72;73.26
9325;BME280;4701;51.566;6.776;2023-01-28T11:14:30;102823.00;;;0.82;73.13
9325;BME280;4701;51.566;6.776;2023-01-28T11:16:31;102822.38;;;0.88;73.10
9325;BME280;4701;51.566;6.776;2023-01-28T11:18:37;102818.94;;;0.96;72.81
9325;BME280;4701;51.566;6.776;2023-01-28T11:20:41;102818.16;;;0.86;71.85
9325;BME280;4701;51.566;6.776;2023-01-28T11:22:50;102807.53;;;0.76;72.43
9325;BME280;4701;51.566;6.776;2023-01-28T11:24:53;102817.16;;;0.69;72.33
9325;BME280;4701;51.566;6.776;2023-01-28T11:26:57;102816.56;;;0.75;72.63
9325;BME280;4701;51.566;6.776;2023-01-28T11:28:59;102817.78;;;0.81;73.09
9325;BME280;4701;51.566;6.776;2023-01-28T11:31:02;102812.81;;;0.68;72.00
9325;BME280;4701;51.566;6.776;2023-01-28T11:33:12;102817.06;;;0.61;73.06
9325;BME280;4701;51.566;6.776;2023-01-28T11:35:23;102814.47;;;0.69;73.43
9325;BME280;4701;51.566;6.776;2023-01-28T11:37:27;102819.47;;;0.82;72.97
9325;BME280;4701;51.566;6.776;2023-01-28T11:39:29;102825.16;;;0.96;73.35
9325;BME280;4701;51.566;6.776;2023-01-28T11:41:34;102815.19;;;1.06;72.94
9325;BME280;4701;51.566;6.776;2023-01-28T11:43:36;102815.88;;;1.08;72.25
9325;BME280;4701;51.566;6.776;2023-01-28T11:45:42;102803.97;;;1.11;71.93
9325;BME280;4701;51.566;6.776;2023-01-28T11:47:56;102809.19;;;1.12;71.80
9325;BME280;4701;51.566;6.776;2023-01-28T11:50:13;102797.44;;;1.31;71.01
9325;BME280;4701;51.566;6.776;2023-01-28T11:52:22;102782.84;;;1.34;71.50
9325;BME280;4701;51.566;6.776;2023-01-28T11:54:44;102783.97;;;1.49;71.05
9325;BME280;4701;51.566;6.776;2023-01-28T11:56:59;102784.91;;;1.66;70.81
9325;BME280;4701;51.566;6.776;2023-01-28T11:59:22;102776.91;;;1.74;69.72
9325;BME280;4701;51.566;6.776;2023-01-28T12:01:36;102773.50;;;1.98;69.59
9325;BME280;4701;51.566;6.776;2023-01-28T12:04:01;102778.94;;;2.14;69.56
9325;BME280;4701;51.566;6.776;2023-01-28T12:06:30;102765.13;;;2.51;69.26
9325;BME280;4701;51.566;6.776;2023-01-28T12:08:41;102761.28;;;3.42;65.43
9325;BME280;4701;51.566;6.776;2023-01-28T12:10:56;102755.50;;;4.17;63.31
9325;BME280;4701;51.566;6.776;2023-01-28T12:13:13;102772.19;;;3.82;60.95
9325;BME280;4701;51.566;6.776;2023-01-28T12:15:30;102772.63;;;3.22;61.48
9325;BME280;4701;51.566;6.776;2023-01-28T12:17:47;102763.16;;;2.85;62.68
9325;BME280;4701;51.566;6.776;2023-01-28T12:20:01;102748.97;;;2.51;63.63
9325;BME280;4701;51.566;6.776;2023-01-28T12:24:40;102741.28;;;2.14;66.52
9325;BME280;4701;51.566;6.776;2023-01-28T12:26:49;102724.81;;;2.17;67.06
9325;BME280;4701;51.566;6.776;2023-01-28T12:29:06;102718.94;;;2.21;65.63
9325;BME280;4701;51.566;6.776;2023-01-28T12:34:11;102675.44;;;3.07;64.28
9325;BME280;4701;51.566;6.776;2023-01-28T12:36:32;102665.59;;;3.86;62.77
9325;BME280;4701;51.566;6.776;2023-01-28T12:38:45;102661.88;;;4.17;62.09
9325;BME280;4701;51.566;6.776;2023-01-28T12:40:57;102669.22;;;5.00;61.20
9325;BME280;4701;51.566;6.776;2023-01-28T12:43:03;102672.59;;;6.05;58.67
9325;BME280;4701;51.566;6.776;2023-01-28T12:45:15;102656.03;;;7.55;53.12
9325;BME280;4701;51.566;6.776;2023-01-28T12:47:21;102659.97;;;9.98;49.55
9325;BME280;4701;51.566;6.776;2023-01-28T12:49:28;102672.59;;;11.43;44.60
9325;BME280;4701;51.566;6.776;2023-01-28T12:51:39;102667.66;;;13.08;40.20
9325;BME280;4701;51.566;6.776;2023-01-28T12:53:50;102667.22;;;13.69;36.84
9325;BME280;4701;51.566;6.776;2023-01-28T12:55:57;102672.50;;;14.84;34.58
9325;BME280;4701;51.566;6.776;2023-01-28T12:58:04;102696.28;;;15.84;33.57
9325;BME280;4701;51.566;6.776;2023-01-28T13:00:21;102687.88;;;16.88;31.71
9325;BME280;4701;51.566;6.776;2023-01-28T13:02:28;102682.28;;;15.47;32.73
9325;BME280;4701;51.566;6.776;2023-01-28T13:04:35;102669.25;;;14.87;32.68
9325;BME280;4701;51.566;6.776;2023-01-28T13:06:41;102681.81;;;14.26;34.35
9325;BME280;4701;51.566;6.776;2023-01-28T13:08:45;102679.03;;;14.10;35.13
9325;BME280;4701;51.566;6.776;2023-01-28T13:10:49;102672.91;;;14.19;34.25
9325;BME280;4701;51.566;6.776;2023-01-28T13:12:52;102667.53;;;14.53;33.66
9325;BME280;4701;51.566;6.776;2023-01-28T13:14:55;102662.25;;;14.63;33.06
9325;BME280;4701;51.566;6.776;2023-01-28T13:17:09;102674.56;;;14.77;33.10
9325;BME280;4701;51.566;6.776;2023-01-28T13:19:22;102682.41;;;15.19;32.69
9325;BME280;4701;51.566;6.776;2023-01-28T13:21:33;102677.47;;;14.70;32.79
9325;BME280;4701;51.566;6.776;2023-01-28T13:23:37;102682.94;;;13.39;33.70
9325;BME280;4701;51.566;6.776;2023-01-28T13:25:47;102695.22;;;13.24;34.12
9325;BME280;4701;51.566;6.776;2023-01-28T13:27:55;102698.44;;;12.80;33.97
9325;BME280;4701;51.566;6.776;2023-01-28T13:30:04;102683.72;;;12.93;35.49
9325;BME280;4701;51.566;6.776;2023-01-28T13:32:29;102672.59;;;11.43;36.71
9325;BME280;4701;51.566;6.776;2023-01-28T13:34:34;102673.97;;;10.84;37.73
9325;BME280;4701;51.566;6.776;2023-01-28T13:36:38;102678.72;;;10.64;38.57
9325;BME280;4701;51.566;6.776;2023-01-28T13:38:45;102683.81;;;10.09;38.26
9325;BME280;4701;51.566;6.776;2023-01-28T13:40:53;102683.03;;;9.96;39.46
9325;BME280;4701;51.566;6.776;2023-01-28T13:43:01;102682.47;;;9.74;38.36
9325;BME280;4701;51.566;6.776;2023-01-28T13:45:20;102679.78;;;7.88;41.90
9325;BME280;4701;51.566;6.776;2023-01-28T13:47:26;102686.13;;;7.33;43.94
9325;BME280;4701;51.566;6.776;2023-01-28T13:49:36;102699.44;;;6.21;46.29
9325;BME280;4701;51.566;6.776;2023-01-28T13:51:46;102698.38;;;5.57;48.32
9325;BME280;4701;51.566;6.776;2023-01-28T13:53:58;102691.75;;;4.92;49.46
9325;BME280;4701;51.566;6.776;2023-01-28T13:56:05;102690.25;;;4.44;50.72
9325;BME280;4701;51.566;6.776;2023-01-28T13:58:42;102688.03;;;4.25;52.60
9325;BME280;4701;51.566;6.776;2023-01-28T14:03:49;102680.44;;;4.89;52.62
9325;BME280;4701;51.566;6.776;2023-01-28T14:06:10;102675.41;;;4.86;51.71
9325;BME280;4701;51.566;6.776;2023-01-28T14:11:09;102659.06;;;6.62;47.85
9325;BME280;4701;51.566;6.776;2023-01-28T14:13:46;102638.22;;;7.46;46.04
9325;BME280;4701;51.566;6.776;2023-01-28T14:15:58;102633.66;;;8.75;45.07
9325;BME280;4701;51.566;6.776;2023-01-28T14:18:10;102626.66;;;9.52;41.67
9325;BME280;4701;51.566;6.776;2023-01-28T14:20:18;102629.19;;;9.40;41.89
9325;BME280;4701;51.566;6.776;2023-01-28T14:22:23;102630.09;;;9.78;41.90
9325;BME280;4701;51.566;6.776;2023-01-28T14:24:26;102633.53;;;10.05;40.76
9325;BME280;4701;51.566;6.776;2023-01-28T14:26:35;102632.50;;;10.44;40.46
9325;BME280;4701;51.566;6.776;2023-01-28T14:28:47;102636.59;;;10.60;38.88
9325;BME280;4701;51.566;6.776;2023-01-28T14:30:57;102640.97;;;11.35;37.54
9325;BME280;4701;51.566;6.776;2023-01-28T14:33:08;102616.41;;;11.54;36.99
9325;BME280;4701;51.566;6.776;2023-01-28T14:35:18;102617.06;;;10.32;38.49
9325;BME280;4701;51.566;6.776;2023-01-28T14:37:26;102626.03;;;9.36;40.15
9325;BME280;4701;51.566;6.776;2023-01-28T14:39:31;102613.16;;;7.92;43.17
9325;BME280;4701;51.566;6.776;2023-01-28T14:41:33;102615.06;;;7.50;45.50
9325;BME280;4701;51.566;6.776;2023-01-28T14:43:37;102622.28;;;7.71;45.74
9325;BME280;4701;51.566;6.776;2023-01-28T14:45:57;102630.34;;;7.58;45.54
9325;BME280;4701;51.566;6.776;2023-01-28T14:48:22;102631.88;;;7.33;44.92
9325;BME280;4701;51.566;6.776;2023-01-28T14:50:32;102631.00;;;7.26;45.99
9325;BME280;4701;51.566;6.776;2023-01-28T14:52:52;102639.50;;;6.67;47.07
9325;BME280;4701;51.566;6.776;2023-01-28T14:55:03;102639.06;;;6.21;46.87
9325;BME280;4701;51.566;6.776;2023-01-28T14:57:38;102639.75;;;6.08;47.51
9325;BME280;4701;51.566;6.776;2023-01-28T14:59:47;102647.06;;;6.99;46.33
9325;BME280;4701;51.566;6.776;2023-01-28T15:01:54;102642.88;;;6.26;45.55
9325;BME280;4701;51.566;6.776;2023-01-28T15:03:56;102644.47;;;5.26;48.48
9325;BME280;4701;51.566;6.776;2023-01-28T15:06:03;102648.00;;;4.74;49.99
9325;BME280;4701;51.566;6.776;2023-01-28T15:08:06;102656.72;;;4.39;51.95
9325;BME280;4701;51.566;6.776;2023-01-28T15:10:14;102658.50;;;3.93;52.83
9325;BME280;4701;51.566;6.776;2023-01-28T15:12:17;102669.22;;;3.70;53.73
9325;BME280;4701;51.566;6.776;2023-01-28T15:14:24;102679.91;;;3.55;54.02
9325;BME280;4701;51.566;6.776;2023-01-28T15:16:28;102684.09;;;3.50;53.69
9325;BME280;4701;51.566;6.776;2023-01-28T15:18:33;102688.41;;;3.20;55.24
9325;BME280;4701;51.566;6.776;2023-01-28T15:20:35;102691.78;;;2.89;57.04
9325;BME280;4701;51.566;6.776;2023-01-28T15:22:38;102691.44;;;2.68;57.93
9325;BME280;4701;51.566;6.776;2023-01-28T15:24:44;102692.28;;;2.52;57.79
9325;BME280;4701;51.566;6.776;2023-01-28T15:26:46;102693.28;;;2.43;59.03
9325;BME280;4701;51.566;6.776;2023-01-28T15:28:49;102691.25;;;2.37;58.75
9325;BME280;4701;51.566;6.776;2023-01-28T15:30:51;102691.03;;;2.31;58.94
9325;BME280;4701;51.566;6.776;2023-01-28T15:32:57;102693.91;;;2.21;59.94
9325;BME280;4701;51.566;6.776;2023-01-28T15:34:59;102696.91;;;2.10;60.33
9325;BME280;4701;51.566;6.776;2023-01-28T15:37:01;102705.59;;;1.96;60.83
9325;BME280;4701;51.566;6.776;2023-01-28T15:39:04;102706.34;;;1.80;61.88
9325;BME280;4701;51.566;6.776;2023-01-28T15:41:07;102716.22;;;1.71;61.87
9325;BME280;4701;51.566;6.776;2023-01-28T15:43:16;102708.97;;;1.64;62.75
9325;BME280;4701;51.566;6.776;2023-01-28T15:45:20;102709.06;;;1.54;62.04
9325;BME280;4701;51.566;6.776;2023-01-28T15:47:25;102709.03;;;1.46;62.31
9325;BME280;4701;51.566;6.776;2023-01-28T15:49:31;102712.84;;;1.35;62.79
9325;BME280;4701;51.566;6.776;2023-01-28T15:51:35;102707.72;;;1.24;63.37
9325;BME280;4701;51.566;6.776;2023-01-28T15:53:42;102707.97;;;1.13;63.94
9325;BME280;4701;51.566;6.776;2023-01-28T15:55:45;102712.44;;;1.04;64.71
9325;BME280;4701;51.566;6.776;2023-01-28T15:57:48;102716.06;;;0.95;65.23
9325;BME280;4701;51.566;6.776;2023-01-28T15:59:50;102725.44;;;0.91;66.00
9325;BME280;4701;51.566;6.776;2023-01-28T16:02:13;102723.44;;;0.93;66.90
9325;BME280;4701;51.566;6.776;2023-01-28T16:04:22;102733.88;;;0.79;66.05
9325;BME280;4701;51.566;6.776;2023-01-28T16:06:29;102738.16;;;0.71;66.72
9325;BME280;4701;51.566;6.776;2023-01-28T16:08:36;102736.41;;;0.62;67.08
9325;BME280;4701;51.566;6.776;2023-01-28T16:10:39;102731.56;;;0.48;67.83
9325;BME280;4701;51.566;6.776;2023-01-28T16:12:48;102728.09;;;0.38;68.54
9325;BME280;4701;51.566;6.776;2023-01-28T16:14:54;102736.31;;;0.36;69.77
9325;BME280;4701;51.566;6.776;2023-01-28T16:16:57;102744.25;;;0.28;69.74
9325;BME280;4701;51.566;6.776;2023-01-28T16:18:59;102743.03;;;0.23;70.19
9325;BME280;4701;51.566;6.776;2023-01-28T16:21:03;102746.16;;;0.18;70.41
9325;BME280;4701;51.566;6.776;2023-01-28T16:23:20;102741.25;;;0.14;71.59
9325;BME280;4701;51.566;6.776;2023-01-28T16:25:27;102744.38;;;0.09;72.18
9325;BME280;4701;51.566;6.776;2023-01-28T16:27:30;102739.59;;;0.03;73.08
9325;BME280;4701;51.566;6.776;2023-01-28T16:29:34;102754.31;;;-0.01;73.07
9325;BME280;4701;51.566;6.776;2023-01-28T16:31:36;102748.28;;;-0.13;72.86
9325;BME280;4701;51.566;6.776;2023-01-28T16:33:38;102750.59;;;-0.18;73.52
9325;BME280;4701;51.566;6.776;2023-01-28T16:35:40;102752.69;;;-0.21;73.78
9325;BME280;4701;51.566;6.776;2023-01-28T16:37:42;102763.16;;;-0.28;74.31
9325;BME280;4701;51.566;6.776;2023-01-28T16:39:44;102758.94;;;-0.30;74.71
9325;BME280;4701;51.566;6.776;2023-01-28T16:41:46;102754.72;;;-0.33;74.94
9325;BME280;4701;51.566;6.776;2023-01-28T16:43:48;102754.88;;;-0.34;75.71
9325;BME280;4701;51.566;6.776;2023-01-28T16:45:51;102752.47;;;-0.38;75.85
9325;BME280;4701;51.566;6.776;2023-01-28T16:47:52;102742.19;;;-0.42;76.41
9325;BME280;4701;51.566;6.776;2023-01-28T16:49:54;102746.16;;;-0.46;77.05
9325;BME280;4701;51.566;6.776;2023-01-28T16:51:56;102743.09;;;-0.51;77.03
9325;BME280;4701;51.566;6.776;2023-01-28T16:53:58;102741.53;;;-0.54;77.84
9325;BME280;4701;51.566;6.776;2023-01-28T16:56:00;102743.50;;;-0.56;78.02
9325;BME280;4701;51.566;6.776;2023-01-28T16:58:02;102748.47;;;-0.61;77.82
9325;BME280;4701;51.566;6.776;2023-01-28T17:00:06;102739.88;;;-0.64;77.68
9325;BME280;4701;51.566;6.776;2023-01-28T17:02:12;102738.16;;;-0.65;77.98
9325;BME280;4701;51.566;6.776;2023-01-28T17:04:14;102744.66;;;-0.68;77.81
9325;BME280;4701;51.566;6.776;2023-01-28T17:06:17;102746.94;;;-0.73;78.42
9325;BME280;4701;51.566;6.776;2023-01-28T17:08:20;102743.69;;;-0.77;79.04
9325;BME280;4701;51.566;6.776;2023-01-28T17:10:21;102744.28;;;-0.83;79.46
9325;BME280;4701;51.566;6.776;2023-01-28T17:12:24;102738.38;;;-0.86;79.60
9325;BME280;4701;51.566;6.776;2023-01-28T17:14:26;102741.31;;;-0.89;79.92
9325;BME280;4701;51.566;6.776;2023-01-28T17:16:28;102720.03;;;-0.91;79.92
9325;BME280;4701;51.566;6.776;2023-01-28T17:18:31;102711.31;;;-0.93;80.69
9325;BME280;4701;51.566;6.776;2023-01-28T17:20:33;102717.94;;;-0.97;81.27
9325;BME280;4701;51.566;6.776;2023-01-28T17:23:03;102727.69;;;-1.05;81.07
9325;BME280;4701;51.566;6.776;2023-01-28T17:25:26;102728.94;;;-1.09;81.25
9325;BME280;4701;51.566;6.776;2023-01-28T17:27:28;102727.25;;;-1.10;81.92
9325;BME280;4701;51.566;6.776;2023-01-28T17:29:30;102728.25;;;-1.11;81.94
9325;BME280;4701;51.566;6.776;2023-01-28T17:31:32;102737.28;;;-1.12;82.34
9325;BME280;4701;51.566;6.776;2023-01-28T17:33:35;102735.56;;;-1.13;82.26
9325;BME280;4701;51.566;6.776;2023-01-28T17:35:37;102748.09;;;-1.14;82.67
9325;BME280;4701;51.566;6.776;2023-01-28T17:37:39;102758.81;;;-1.14;82.62
9325;BME280;4701;51.566;6.776;2023-01-28T17:39:41;102757.25;;;-1.17;82.55
9325;BME280;4701;51.566;6.776;2023-01-28T17:41:43;102754.03;;;-1.20;82.62
9325;BME280;4701;51.566;6.776;2023-01-28T17:43:49;102758.66;;;-1.22;82.82
9325;BME280;4701;51.566;6.776;2023-01-28T17:45:51;102759.50;;;-1.31;82.59
9325;BME280;4701;51.566;6.776;2023-01-28T17:47:53;102759.91;;;-1.36;82.93
9325;BME280;4701;51.566;6.776;2023-01-28T17:49:56;102769.94;;;-1.38;83.31
9325;BME280;4701;51.566;6.776;2023-01-28T17:51:58;102771.88;;;-1.40;83.31
9325;BME280;4701;51.566;6.776;2023-01-28T17:54:00;102774.84;;;-1.43;83.30
9325;BME280;4701;51.566;6.776;2023-01-28T17:56:02;102779.50;;;-1.45;83.45
9325;BME280;4701;51.566;6.776;2023-01-28T17:58:04;102784.97;;;-1.46;83.30
9325;BME280;4701;51.566;6.776;2023-01-28T18:00:07;102776.50;;;-1.52;83.84
9325;BME280;4701;51.566;6.776;2023-01-28T18:02:14;102782.84;;;-1.53;84.29
9325;BME280;4701;51.566;6.776;2023-01-28T18:04:16;102778.91;;;-1.58;84.44
9325;BME280;4701;51.566;6.776;2023-01-28T18:06:19;102779.59;;;-1.66;84.94
9325;BME280;4701;51.566;6.776;2023-01-28T18:08:21;102779.59;;;-1.66;85.63
9325;BME280;4701;51.566;6.776;2023-01-28T18:10:23;102772.53;;;-1.67;85.86
9325;BME280;4701;51.566;6.776;2023-01-28T18:12:25;102771.81;;;-1.69;85.95
9325;BME280;4701;51.566;6.776;2023-01-28T18:14:27;102778.31;;;-1.71;86.16
9325;BME280;4701;51.566;6.776;2023-01-28T18:16:29;102769.84;;;-1.76;86.92
9325;BME280;4701;51.566;6.776;2023-01-28T18:18:31;102775.75;;;-1.82;86.85
9325;BME280;4701;51.566;6.776;2023-01-28T18:20:33;102778.69;;;-1.85;87.10
9325;BME280;4701;51.566;6.776;2023-01-28T18:22:36;102779.66;;;-1.86;87.35
9325;BME280;4701;51.566;6.776;2023-01-28T18:24:38;102785.00;;;-1.86;87.68
9325;BME280;4701;51.566;6.776;2023-01-28T18:26:40;102785.16;;;-1.88;87.74
9325;BME280;4701;51.566;6.776;2023-01-28T18:28:42;102789.78;;;-1.90;87.25
9325;BME280;4701;51.566;6.776;2023-01-28T18:30:44;102790.63;;;-1.89;88.28
9325;BME280;4701;51.566;6.776;2023-01-28T18:32:46;102791.34;;;-1.87;88.24
9325;BME280;4701;51.566;6.776;2023-01-28T18:34:48;102795.00;;;-1.88;88.11
9325;BME280;4701;51.566;6.776;2023-01-28T18:36:50;102803.28;;;-1.92;88.02
9325;BME280;4701;51.566;6.776;2023-01-28T18:38:53;102807.91;;;-1.94;88.01